LFPM 201100Z AUTO 00000KT CAVOK 23/15 Q1015

Les avions qui composent notre flotte

Piper PA28 Archer II

Idéal pour les voyages, équipé RNAV

F-GHJT


F-GHJT Planche